Orbital elements of LATINSAT B
| Launched | 19 December 2002 |
| Flight ended | – |
| Launch site | Tyuratam Missile and Space Center, Kazakhstan (Also known as Baikonur Cosmodrome) |
| Owner | Argentina |
| NORAD ID | 27606 |
| Date fetched |
Epoch osculation |
Inc. [°] |
Ecc. | RA asc node [hr] |
Arg Peri. [°] |
Mean anom [°] |
Mean motion [rev/day] |
Abs. mag |
| Date fetched |
Epoch osculation |
Inc. [°] |
Ecc. | RA asc node [hr] |
Arg Peri. [°] |
Mean anom [°] |
Mean motion [rev/day] |
Abs. mag |
| 2026 May 08 17:57 | 2026 May 08 06:38:45 | 64.5558 | 0.00871 | 0.8661 | 277.7495 | 81.3723 | 14.76974 | – |
| 2026 May 07 17:58 | 2026 May 07 03:01:13 | 64.5559 | 0.00871 | 1.1013 | 277.9696 | 81.3723 | 14.76974 | – |
| 2026 May 06 17:57 | 2026 May 06 10:46:12 | 64.5559 | 0.00871 | 1.2396 | 278.1039 | 81.3723 | 14.76974 | – |
| 2026 May 05 17:57 | 2026 May 05 03:53:39 | 64.5559 | 0.00871 | 1.5024 | 278.3548 | 81.3723 | 14.76974 | – |
| 2026 May 04 17:57 | 2026 May 04 05:08:38 | 64.5559 | 0.00871 | 1.6960 | 278.5445 | 81.3723 | 14.76974 | – |
| 2026 May 03 17:57 | 2026 May 03 11:16:06 | 64.5559 | 0.00870 | 1.8482 | 278.6890 | 81.3723 | 14.76974 | – |
| 2026 May 02 17:57 | 2026 May 02 06:01:04 | 64.5559 | 0.00870 | 2.0972 | 278.9226 | 81.3723 | 14.76974 | – |
| 2026 May 01 17:56 | 2026 May 01 08:53:32 | 64.5558 | 0.00870 | 2.2770 | 279.0969 | 81.3723 | 14.76974 | – |
| 2026 Apr 30 17:56 | 2026 Apr 30 05:15:59 | 64.5557 | 0.00870 | 2.5121 | 279.3224 | 81.3723 | 14.76974 | – |
| 2026 Apr 29 17:57 | 2026 Apr 29 04:53:27 | 64.5556 | 0.00870 | 2.7196 | 279.5223 | 81.3723 | 14.76974 | – |
| 2026 Apr 28 17:56 | 2026 Apr 28 12:38:25 | 64.5556 | 0.00870 | 2.8579 | 279.6605 | 81.3723 | 14.76974 | – |
| 2026 Apr 27 17:58 | 2026 Apr 27 12:15:53 | 64.5555 | 0.00869 | 3.0654 | 279.8598 | 81.3723 | 14.76974 | – |
| 2026 Apr 26 17:58 | 2026 Apr 25 22:53:19 | 64.5553 | 0.00869 | 3.3835 | 280.1652 | 81.3723 | 14.76974 | – |
| 2026 Apr 25 17:58 | 2026 Apr 25 06:38:17 | 64.5551 | 0.00869 | 3.5218 | 280.3008 | 81.3723 | 14.76974 | – |
| 2026 Apr 24 17:59 | 2026 Apr 24 06:15:44 | 64.5550 | 0.00869 | 3.7293 | 280.5076 | 81.3723 | 14.76974 | – |
| 2026 Apr 23 17:57 | 2026 Apr 23 05:53:11 | 64.5547 | 0.00869 | 3.9368 | 280.7096 | 81.3723 | 14.76974 | – |
| 2026 Apr 22 17:57 | 2026 Apr 22 05:30:38 | 64.5545 | 0.00869 | 4.1442 | 280.9090 | 81.3723 | 14.76974 | – |
| 2026 Apr 21 17:57 | 2026 Apr 21 06:45:35 | 64.5543 | 0.00868 | 4.3379 | 281.0961 | 81.3723 | 14.76974 | – |
| 2026 Apr 20 17:57 | 2026 Apr 20 06:23:02 | 64.5541 | 0.00868 | 4.5454 | 281.2936 | 81.3723 | 14.76974 | – |
| 2026 Apr 19 17:58 | 2026 Apr 19 09:15:29 | 64.5539 | 0.00868 | 4.7252 | 281.4641 | 81.3723 | 14.76974 | – |
| 2026 Apr 18 17:56 | 2026 Apr 18 04:00:25 | 64.5538 | 0.00868 | 4.9742 | 281.7004 | 81.3723 | 14.76974 | – |
| 2026 Apr 16 17:57 | 2026 Apr 16 06:30:18 | 64.5534 | 0.00867 | 5.3615 | 282.0755 | 81.3723 | 14.76974 | – |
| 2026 Apr 14 17:57 | 2026 Apr 14 09:00:12 | 64.5531 | 0.00867 | 5.7488 | 282.4553 | 81.3723 | 14.76974 | – |
| 2026 Apr 13 17:57 | 2026 Apr 13 05:22:38 | 64.5529 | 0.00866 | 5.9840 | 282.6664 | 81.3723 | 14.76974 | – |
| 2026 Apr 12 17:57 | 2026 Apr 12 03:22:33 | 64.5528 | 0.00866 | 6.2053 | 282.8737 | 81.3723 | 14.76974 | – |
| 2026 Apr 11 17:57 | 2026 Apr 11 06:15:00 | 64.5527 | 0.00866 | 6.3851 | 283.0439 | 81.3723 | 14.76974 | – |